sensor_id;sensor_type;location;lat;lon;timestamp;pressure;altitude;pressure_sealevel;temperature;humidity
63339;BME280;47485;51.378;-1.342;2022-12-18T00:00:08;100717.49;;;0.41;25.78
63339;BME280;47485;51.378;-1.342;2022-12-18T00:02:35;100716.56;;;0.25;26.31
63339;BME280;47485;51.378;-1.342;2022-12-18T00:05:02;100706.12;;;0.00;25.75
63339;BME280;47485;51.378;-1.342;2022-12-18T00:07:29;100697.15;;;0.45;25.61
63339;BME280;47485;51.378;-1.342;2022-12-18T00:09:56;100686.73;;;0.37;25.40
63339;BME280;47485;51.378;-1.342;2022-12-18T00:12:23;100680.77;;;1.11;25.51
63339;BME280;47485;51.378;-1.342;2022-12-18T00:14:49;100677.83;;;0.26;25.23
63339;BME280;47485;51.378;-1.342;2022-12-18T00:17:16;100673.34;;;1.07;24.88
63339;BME280;47485;51.378;-1.342;2022-12-18T00:19:43;100671.47;;;-1.11;26.53
63339;BME280;47485;51.378;-1.342;2022-12-18T00:22:10;100673.56;;;1.47;24.71
63339;BME280;47485;51.378;-1.342;2022-12-18T00:24:37;100674.17;;;0.08;25.95
63339;BME280;47485;51.378;-1.342;2022-12-18T00:27:03;100670.12;;;1.96;24.31
63339;BME280;47485;51.378;-1.342;2022-12-18T00:29:30;100673.05;;;-1.66;25.96
63339;BME280;47485;51.378;-1.342;2022-12-18T00:31:57;100667.55;;;-0.85;26.65
63339;BME280;47485;51.378;-1.342;2022-12-18T00:34:24;100665.77;;;-0.46;26.75
63339;BME280;47485;51.378;-1.342;2022-12-18T00:36:50;100655.15;;;-0.27;25.55
63339;BME280;47485;51.378;-1.342;2022-12-18T00:39:18;100648.61;;;-0.14;26.19
63339;BME280;47485;51.378;-1.342;2022-12-18T00:41:44;100647.22;;;0.65;26.02
63339;BME280;47485;51.378;-1.342;2022-12-18T00:44:13;100644.66;;;0.61;26.63
63339;BME280;47485;51.378;-1.342;2022-12-18T00:46:40;100643.47;;;-2.15;27.44
63339;BME280;47485;51.378;-1.342;2022-12-18T00:49:08;100639.00;;;0.28;26.15
63339;BME280;47485;51.378;-1.342;2022-12-18T00:51:35;100633.37;;;1.50;26.01
63339;BME280;47485;51.378;-1.342;2022-12-18T00:54:02;100628.15;;;1.68;25.75
63339;BME280;47485;51.378;-1.342;2022-12-18T00:56:29;100624.58;;;-0.45;27.04
63339;BME280;47485;51.378;-1.342;2022-12-18T00:58:55;100626.72;;;-1.11;26.99
63339;BME280;47485;51.378;-1.342;2022-12-18T01:01:22;100626.39;;;-0.04;25.97
63339;BME280;47485;51.378;-1.342;2022-12-18T01:03:49;100627.12;;;-0.27;26.46
63339;BME280;47485;51.378;-1.342;2022-12-18T01:06:17;100631.99;;;1.99;25.16
63339;BME280;47485;51.378;-1.342;2022-12-18T01:08:44;100630.43;;;-1.03;26.08
63339;BME280;47485;51.378;-1.342;2022-12-18T01:11:13;100623.59;;;-0.62;26.14
63339;BME280;47485;51.378;-1.342;2022-12-18T01:13:41;100613.51;;;-0.85;26.51
63339;BME280;47485;51.378;-1.342;2022-12-18T01:16:10;100607.78;;;-0.29;26.31
63339;BME280;47485;51.378;-1.342;2022-12-18T01:18:38;100610.34;;;-0.34;25.73
63339;BME280;47485;51.378;-1.342;2022-12-18T01:21:06;100614.41;;;-1.74;26.52
63339;BME280;47485;51.378;-1.342;2022-12-18T01:23:33;100612.15;;;0.12;25.94
63339;BME280;47485;51.378;-1.342;2022-12-18T01:26:04;100614.51;;;-1.08;26.13
63339;BME280;47485;51.378;-1.342;2022-12-18T01:28:31;100614.54;;;-0.62;26.93
63339;BME280;47485;51.378;-1.342;2022-12-18T01:31:12;100606.66;;;-1.69;26.55
63339;BME280;47485;51.378;-1.342;2022-12-18T01:33:40;100608.21;;;-1.21;25.65
63339;BME280;47485;51.378;-1.342;2022-12-18T01:36:07;100607.53;;;0.18;25.01
63339;BME280;47485;51.378;-1.342;2022-12-18T01:38:34;100611.71;;;-0.43;25.48
63339;BME280;47485;51.378;-1.342;2022-12-18T01:41:01;100610.16;;;1.38;25.28
63339;BME280;47485;51.378;-1.342;2022-12-18T01:43:46;100606.26;;;0.94;25.26
63339;BME280;47485;51.378;-1.342;2022-12-18T01:46:14;100610.56;;;-0.77;25.34
63339;BME280;47485;51.378;-1.342;2022-12-18T01:48:42;100608.37;;;0.79;25.63
63339;BME280;47485;51.378;-1.342;2022-12-18T01:51:11;100614.96;;;-1.61;26.77
63339;BME280;47485;51.378;-1.342;2022-12-18T01:53:40;100614.68;;;1.16;25.51
63339;BME280;47485;51.378;-1.342;2022-12-18T01:56:08;100616.68;;;1.19;25.50
63339;BME280;47485;51.378;-1.342;2022-12-18T01:58:43;100622.06;;;0.01;26.03
63339;BME280;47485;51.378;-1.342;2022-12-18T02:01:12;100627.28;;;0.84;25.53
63339;BME280;47485;51.378;-1.342;2022-12-18T02:03:42;100628.29;;;-0.36;25.94
63339;BME280;47485;51.378;-1.342;2022-12-18T02:06:13;100625.31;;;0.20;25.88
63339;BME280;47485;51.378;-1.342;2022-12-18T02:08:48;100625.30;;;1.04;25.31
63339;BME280;47485;51.378;-1.342;2022-12-18T02:11:24;100628.25;;;0.12;25.85
63339;BME280;47485;51.378;-1.342;2022-12-18T02:14:02;100627.29;;;-1.13;26.76
63339;BME280;47485;51.378;-1.342;2022-12-18T02:16:39;100628.32;;;0.57;25.90
63339;BME280;47485;51.378;-1.342;2022-12-18T02:19:26;100630.26;;;0.04;25.94
63339;BME280;47485;51.378;-1.342;2022-12-18T02:22:10;100634.76;;;1.25;26.16
63339;BME280;47485;51.378;-1.342;2022-12-18T02:24:47;100631.45;;;-0.82;26.66
63339;BME280;47485;51.378;-1.342;2022-12-18T02:27:16;100619.51;;;-1.33;26.49
63339;BME280;47485;51.378;-1.342;2022-12-18T02:29:47;100621.22;;;0.31;26.54
63339;BME280;47485;51.378;-1.342;2022-12-18T02:32:19;100621.11;;;0.45;26.51
63339;BME280;47485;51.378;-1.342;2022-12-18T02:34:50;100612.54;;;-0.29;27.49
63339;BME280;47485;51.378;-1.342;2022-12-18T02:37:19;100616.19;;;1.55;26.39
63339;BME280;47485;51.378;-1.342;2022-12-18T02:39:47;100610.87;;;-0.37;26.95
63339;BME280;47485;51.378;-1.342;2022-12-18T02:42:16;100599.76;;;-0.41;26.78
63339;BME280;47485;51.378;-1.342;2022-12-18T02:44:46;100591.84;;;0.86;25.79
63339;BME280;47485;51.378;-1.342;2022-12-18T02:47:15;100591.65;;;-1.20;27.09
63339;BME280;47485;51.378;-1.342;2022-12-18T02:49:49;100583.70;;;-0.12;26.17
63339;BME280;47485;51.378;-1.342;2022-12-18T02:52:26;100573.83;;;1.33;25.90
63339;BME280;47485;51.378;-1.342;2022-12-18T02:55:02;100575.38;;;0.62;26.35
63339;BME280;47485;51.378;-1.342;2022-12-18T02:57:35;100580.27;;;1.33;25.47
63339;BME280;47485;51.378;-1.342;2022-12-18T03:00:06;100581.41;;;0.39;25.72
63339;BME280;47485;51.378;-1.342;2022-12-18T03:02:39;100585.07;;;-0.00;25.94
63339;BME280;47485;51.378;-1.342;2022-12-18T03:05:13;100590.58;;;0.33;26.35
63339;BME280;47485;51.378;-1.342;2022-12-18T03:07:47;100588.62;;;-0.37;26.16
63339;BME280;47485;51.378;-1.342;2022-12-18T03:10:21;100583.93;;;-0.55;26.00
63339;BME280;47485;51.378;-1.342;2022-12-18T03:12:53;100579.76;;;-0.12;25.91
63339;BME280;47485;51.378;-1.342;2022-12-18T03:15:26;100577.59;;;2.04;24.73
63339;BME280;47485;51.378;-1.342;2022-12-18T03:18:03;100571.35;;;1.64;25.07
63339;BME280;47485;51.378;-1.342;2022-12-18T03:20:34;100571.61;;;-0.18;25.26
63339;BME280;47485;51.378;-1.342;2022-12-18T03:23:06;100570.31;;;0.48;25.58
63339;BME280;47485;51.378;-1.342;2022-12-18T03:25:38;100567.77;;;-0.77;26.35
63339;BME280;47485;51.378;-1.342;2022-12-18T03:28:07;100570.89;;;-0.79;26.34
63339;BME280;47485;51.378;-1.342;2022-12-18T03:30:37;100578.53;;;0.40;26.13
63339;BME280;47485;51.378;-1.342;2022-12-18T03:33:08;100579.36;;;-0.72;26.66
63339;BME280;47485;51.378;-1.342;2022-12-18T03:35:40;100572.43;;;1.56;25.77
63339;BME280;47485;51.378;-1.342;2022-12-18T03:38:08;100576.69;;;1.57;25.35
63339;BME280;47485;51.378;-1.342;2022-12-18T03:40:46;100572.53;;;-0.59;26.84
63339;BME280;47485;51.378;-1.342;2022-12-18T03:43:20;100570.50;;;-1.87;27.41
63339;BME280;47485;51.378;-1.342;2022-12-18T03:45:56;100566.69;;;-1.11;27.20
63339;BME280;47485;51.378;-1.342;2022-12-18T03:48:30;100562.30;;;1.21;26.40
63339;BME280;47485;51.378;-1.342;2022-12-18T03:51:01;100561.12;;;-0.57;26.58
63339;BME280;47485;51.378;-1.342;2022-12-18T03:53:36;100556.91;;;-1.93;27.59
63339;BME280;47485;51.378;-1.342;2022-12-18T03:56:06;100553.84;;;-0.78;27.08
63339;BME280;47485;51.378;-1.342;2022-12-18T03:58:36;100552.94;;;-2.57;28.04
63339;BME280;47485;51.378;-1.342;2022-12-18T04:01:06;100555.15;;;-2.39;28.04
63339;BME280;47485;51.378;-1.342;2022-12-18T04:03:35;100550.67;;;-2.33;28.09
63339;BME280;47485;51.378;-1.342;2022-12-18T04:06:03;100549.38;;;-2.82;28.67
63339;BME280;47485;51.378;-1.342;2022-12-18T04:08:32;100549.24;;;0.00;27.02
63339;BME280;47485;51.378;-1.342;2022-12-18T04:10:59;100543.37;;;-0.34;26.54
63339;BME280;47485;51.378;-1.342;2022-12-18T04:13:29;100537.59;;;-0.29;26.07
63339;BME280;47485;51.378;-1.342;2022-12-18T04:15:56;100531.43;;;0.51;26.20
63339;BME280;47485;51.378;-1.342;2022-12-18T04:18:23;100531.19;;;-0.15;26.28
63339;BME280;47485;51.378;-1.342;2022-12-18T04:20:49;100527.32;;;1.34;26.08
63339;BME280;47485;51.378;-1.342;2022-12-18T04:23:16;100523.22;;;0.76;26.02
63339;BME280;47485;51.378;-1.342;2022-12-18T04:25:43;100515.24;;;-0.23;26.09
63339;BME280;47485;51.378;-1.342;2022-12-18T04:28:10;100503.51;;;0.07;26.16
63339;BME280;47485;51.378;-1.342;2022-12-18T04:30:36;100492.48;;;-0.85;26.48
63339;BME280;47485;51.378;-1.342;2022-12-18T04:33:08;100487.64;;;0.06;26.75
63339;BME280;47485;51.378;-1.342;2022-12-18T04:35:34;100480.62;;;0.20;26.98
63339;BME280;47485;51.378;-1.342;2022-12-18T04:38:02;100467.62;;;0.01;26.37
63339;BME280;47485;51.378;-1.342;2022-12-18T04:40:28;100467.70;;;-1.19;28.00
63339;BME280;47485;51.378;-1.342;2022-12-18T04:42:55;100463.67;;;-2.18;28.07
63339;BME280;47485;51.378;-1.342;2022-12-18T04:45:22;100464.25;;;-2.00;29.21
63339;BME280;47485;51.378;-1.342;2022-12-18T04:47:49;100452.82;;;-4.07;30.07
63339;BME280;47485;51.378;-1.342;2022-12-18T04:50:16;100445.80;;;-3.72;32.21
63339;BME280;47485;51.378;-1.342;2022-12-18T04:52:42;100442.89;;;-2.36;29.92
63339;BME280;47485;51.378;-1.342;2022-12-18T04:55:09;100441.15;;;-2.25;29.80
63339;BME280;47485;51.378;-1.342;2022-12-18T04:57:36;100438.57;;;-1.40;29.56
63339;BME280;47485;51.378;-1.342;2022-12-18T05:00:04;100437.41;;;-3.75;31.31
63339;BME280;47485;51.378;-1.342;2022-12-18T05:02:32;100435.62;;;-2.20;29.54
63339;BME280;47485;51.378;-1.342;2022-12-18T05:04:59;100438.70;;;-3.60;32.18
63339;BME280;47485;51.378;-1.342;2022-12-18T05:07:26;100427.54;;;-3.03;31.03
63339;BME280;47485;51.378;-1.342;2022-12-18T05:09:53;100425.03;;;-5.05;32.10
63339;BME280;47485;51.378;-1.342;2022-12-18T05:12:21;100420.72;;;-5.71;33.13
63339;BME280;47485;51.378;-1.342;2022-12-18T05:14:48;100416.13;;;-3.31;30.35
63339;BME280;47485;51.378;-1.342;2022-12-18T05:17:15;100419.54;;;-1.45;29.66
63339;BME280;47485;51.378;-1.342;2022-12-18T05:19:42;100422.39;;;-1.28;29.50
63339;BME280;47485;51.378;-1.342;2022-12-18T05:22:09;100423.03;;;-0.18;28.72
63339;BME280;47485;51.378;-1.342;2022-12-18T05:24:36;100423.91;;;-1.92;28.85
63339;BME280;47485;51.378;-1.342;2022-12-18T05:27:02;100420.90;;;-2.68;30.65
63339;BME280;47485;51.378;-1.342;2022-12-18T05:29:30;100415.61;;;-3.71;30.84
63339;BME280;47485;51.378;-1.342;2022-12-18T05:31:56;100411.34;;;-2.89;30.31
63339;BME280;47485;51.378;-1.342;2022-12-18T05:34:23;100404.27;;;-2.31;29.57
63339;BME280;47485;51.378;-1.342;2022-12-18T05:36:49;100407.53;;;-1.59;30.25
63339;BME280;47485;51.378;-1.342;2022-12-18T05:39:17;100411.01;;;-4.56;32.30
63339;BME280;47485;51.378;-1.342;2022-12-18T05:41:43;100400.56;;;-1.57;30.21
63339;BME280;47485;51.378;-1.342;2022-12-18T05:44:10;100391.09;;;-2.30;30.65
63339;BME280;47485;51.378;-1.342;2022-12-18T05:46:37;100383.59;;;-3.04;31.55
63339;BME280;47485;51.378;-1.342;2022-12-18T05:49:03;100381.44;;;-3.69;31.79
63339;BME280;47485;51.378;-1.342;2022-12-18T05:51:30;100376.04;;;-1.60;29.68
63339;BME280;47485;51.378;-1.342;2022-12-18T05:53:57;100368.86;;;-1.19;29.87
63339;BME280;47485;51.378;-1.342;2022-12-18T05:56:24;100362.09;;;-2.17;29.88
63339;BME280;47485;51.378;-1.342;2022-12-18T05:58:52;100359.14;;;-3.02;30.76
63339;BME280;47485;51.378;-1.342;2022-12-18T06:01:22;100351.77;;;-1.65;29.56
63339;BME280;47485;51.378;-1.342;2022-12-18T06:03:50;100358.92;;;-3.87;32.14
63339;BME280;47485;51.378;-1.342;2022-12-18T06:06:20;100349.17;;;-0.62;29.23
63339;BME280;47485;51.378;-1.342;2022-12-18T06:08:48;100345.09;;;-1.16;30.25
63339;BME280;47485;51.378;-1.342;2022-12-18T06:11:20;100335.33;;;-1.43;30.42
63339;BME280;47485;51.378;-1.342;2022-12-18T06:13:50;100332.70;;;-0.84;29.57
63339;BME280;47485;51.378;-1.342;2022-12-18T06:16:18;100331.82;;;-3.16;32.00
63339;BME280;47485;51.378;-1.342;2022-12-18T06:18:45;100327.97;;;-5.01;33.52
63339;BME280;47485;51.378;-1.342;2022-12-18T06:21:12;100320.60;;;-2.06;30.66
63339;BME280;47485;51.378;-1.342;2022-12-18T06:23:39;100318.23;;;-2.00;30.79
63339;BME280;47485;51.378;-1.342;2022-12-18T06:26:08;100327.06;;;-2.08;30.84
63339;BME280;47485;51.378;-1.342;2022-12-18T06:28:35;100334.71;;;-2.90;31.42
63339;BME280;47485;51.378;-1.342;2022-12-18T06:31:03;100327.12;;;-2.14;31.75
63339;BME280;47485;51.378;-1.342;2022-12-18T06:33:30;100313.74;;;-3.93;32.39
63339;BME280;47485;51.378;-1.342;2022-12-18T06:36:00;100313.19;;;-2.11;32.03
63339;BME280;47485;51.378;-1.342;2022-12-18T06:38:27;100315.25;;;-2.74;31.64
63339;BME280;47485;51.378;-1.342;2022-12-18T06:40:54;100313.94;;;-6.35;34.90
63339;BME280;47485;51.378;-1.342;2022-12-18T06:43:22;100306.92;;;-4.42;32.67
63339;BME280;47485;51.378;-1.342;2022-12-18T06:45:48;100306.69;;;-3.22;31.96
63339;BME280;47485;51.378;-1.342;2022-12-18T06:48:16;100306.06;;;-2.34;31.29
63339;BME280;47485;51.378;-1.342;2022-12-18T06:50:43;100313.29;;;-3.01;31.93
63339;BME280;47485;51.378;-1.342;2022-12-18T06:53:10;100303.13;;;-2.02;30.24
63339;BME280;47485;51.378;-1.342;2022-12-18T06:55:37;100303.98;;;-0.90;30.17
63339;BME280;47485;51.378;-1.342;2022-12-18T06:58:04;100307.62;;;-1.43;29.81
63339;BME280;47485;51.378;-1.342;2022-12-18T07:00:30;100298.76;;;-0.87;29.33
63339;BME280;47485;51.378;-1.342;2022-12-18T07:02:57;100301.52;;;-1.36;30.68
63339;BME280;47485;51.378;-1.342;2022-12-18T07:05:24;100299.25;;;0.90;28.84
63339;BME280;47485;51.378;-1.342;2022-12-18T07:07:51;100300.27;;;-1.03;29.59
63339;BME280;47485;51.378;-1.342;2022-12-18T07:10:18;100293.25;;;0.36;28.84
63339;BME280;47485;51.378;-1.342;2022-12-18T07:12:45;100296.44;;;-1.98;30.57
63339;BME280;47485;51.378;-1.342;2022-12-18T07:15:12;100298.53;;;-2.86;31.73
63339;BME280;47485;51.378;-1.342;2022-12-18T07:17:38;100295.87;;;-2.25;31.95
63339;BME280;47485;51.378;-1.342;2022-12-18T07:20:05;100284.21;;;-1.67;31.06
63339;BME280;47485;51.378;-1.342;2022-12-18T07:22:32;100282.90;;;-3.94;33.02
63339;BME280;47485;51.378;-1.342;2022-12-18T07:24:59;100289.44;;;-3.59;32.29
63339;BME280;47485;51.378;-1.342;2022-12-18T07:27:25;100288.57;;;-1.08;31.95
63339;BME280;47485;51.378;-1.342;2022-12-18T07:29:52;100281.76;;;-1.69;31.77
63339;BME280;47485;51.378;-1.342;2022-12-18T07:32:19;100272.54;;;-1.53;31.11
63339;BME280;47485;51.378;-1.342;2022-12-18T07:34:46;100260.68;;;-0.50;29.52
63339;BME280;47485;51.378;-1.342;2022-12-18T07:37:13;100262.35;;;-0.62;30.97
63339;BME280;47485;51.378;-1.342;2022-12-18T07:39:40;100261.10;;;-0.76;30.23
63339;BME280;47485;51.378;-1.342;2022-12-18T07:42:07;100259.47;;;-0.26;29.86
63339;BME280;47485;51.378;-1.342;2022-12-18T07:44:34;100250.85;;;-1.82;31.14
63339;BME280;47485;51.378;-1.342;2022-12-18T07:47:01;100250.33;;;-0.45;29.10
63339;BME280;47485;51.378;-1.342;2022-12-18T07:49:28;100257.00;;;-0.04;29.24
63339;BME280;47485;51.378;-1.342;2022-12-18T07:51:56;100260.45;;;-0.99;29.57
63339;BME280;47485;51.378;-1.342;2022-12-18T07:54:24;100262.12;;;-1.50;29.70
63339;BME280;47485;51.378;-1.342;2022-12-18T07:56:51;100261.88;;;-0.21;28.96
63339;BME280;47485;51.378;-1.342;2022-12-18T07:59:19;100264.92;;;0.21;28.55
63339;BME280;47485;51.378;-1.342;2022-12-18T08:01:45;100270.04;;;0.77;28.62
63339;BME280;47485;51.378;-1.342;2022-12-18T08:04:12;100282.95;;;0.87;28.57
63339;BME280;47485;51.378;-1.342;2022-12-18T08:06:39;100283.25;;;0.16;28.30
63339;BME280;47485;51.378;-1.342;2022-12-18T08:09:06;100288.35;;;0.96;28.46
63339;BME280;47485;51.378;-1.342;2022-12-18T08:11:33;100293.21;;;-0.97;28.76
63339;BME280;47485;51.378;-1.342;2022-12-18T08:13:59;100288.93;;;-0.38;27.84
63339;BME280;47485;51.378;-1.342;2022-12-18T08:16:26;100294.39;;;0.65;27.99
63339;BME280;47485;51.378;-1.342;2022-12-18T08:18:53;100288.92;;;1.27;27.84
63339;BME280;47485;51.378;-1.342;2022-12-18T08:21:23;100284.90;;;0.85;27.91
63339;BME280;47485;51.378;-1.342;2022-12-18T08:23:52;100276.19;;;0.49;27.72
63339;BME280;47485;51.378;-1.342;2022-12-18T08:26:21;100276.57;;;1.86;27.12
63339;BME280;47485;51.378;-1.342;2022-12-18T08:28:49;100280.58;;;0.46;27.76
63339;BME280;47485;51.378;-1.342;2022-12-18T08:31:17;100283.11;;;0.72;27.83
63339;BME280;47485;51.378;-1.342;2022-12-18T08:33:44;100283.81;;;2.13;27.78
63339;BME280;47485;51.378;-1.342;2022-12-18T08:36:10;100285.28;;;1.54;27.41
63339;BME280;47485;51.378;-1.342;2022-12-18T08:38:37;100286.54;;;0.13;28.32
63339;BME280;47485;51.378;-1.342;2022-12-18T08:41:05;100281.52;;;-0.73;28.69
63339;BME280;47485;51.378;-1.342;2022-12-18T08:43:33;100279.30;;;0.10;29.24
63339;BME280;47485;51.378;-1.342;2022-12-18T08:46:00;100280.76;;;0.69;28.78
63339;BME280;47485;51.378;-1.342;2022-12-18T08:48:27;100283.68;;;-0.93;28.83
63339;BME280;47485;51.378;-1.342;2022-12-18T08:50:54;100288.27;;;1.19;28.45
63339;BME280;47485;51.378;-1.342;2022-12-18T08:53:22;100298.75;;;1.37;27.61
63339;BME280;47485;51.378;-1.342;2022-12-18T08:55:49;100307.21;;;1.40;27.15
63339;BME280;47485;51.378;-1.342;2022-12-18T08:58:15;100310.63;;;1.33;27.10
63339;BME280;47485;51.378;-1.342;2022-12-18T09:00:42;100311.41;;;1.07;27.38
63339;BME280;47485;51.378;-1.342;2022-12-18T09:03:11;100315.24;;;1.71;26.97
63339;BME280;47485;51.378;-1.342;2022-12-18T09:05:38;100315.45;;;2.22;27.00
63339;BME280;47485;51.378;-1.342;2022-12-18T09:08:04;100307.93;;;2.79;26.68
63339;BME280;47485;51.378;-1.342;2022-12-18T09:10:31;100304.26;;;0.28;26.91
63339;BME280;47485;51.378;-1.342;2022-12-18T09:12:58;100288.44;;;-0.10;28.66
63339;BME280;47485;51.378;-1.342;2022-12-18T09:15:25;100280.43;;;2.20;27.21
63339;BME280;47485;51.378;-1.342;2022-12-18T09:17:52;100279.02;;;2.30;27.09
63339;BME280;47485;51.378;-1.342;2022-12-18T09:20:20;100279.79;;;3.38;26.75
63339;BME280;47485;51.378;-1.342;2022-12-18T09:22:47;100283.43;;;1.48;26.96
63339;BME280;47485;51.378;-1.342;2022-12-18T09:25:13;100283.21;;;0.94;27.17
63339;BME280;47485;51.378;-1.342;2022-12-18T09:27:40;100282.92;;;0.48;26.95
63339;BME280;47485;51.378;-1.342;2022-12-18T09:30:08;100284.38;;;3.04;27.08
63339;BME280;47485;51.378;-1.342;2022-12-18T09:32:36;100284.03;;;2.46;26.79
63339;BME280;47485;51.378;-1.342;2022-12-18T09:35:03;100272.53;;;1.28;27.12
63339;BME280;47485;51.378;-1.342;2022-12-18T09:37:30;100270.81;;;2.69;27.04
63339;BME280;47485;51.378;-1.342;2022-12-18T09:39:57;100266.78;;;2.10;26.80
63339;BME280;47485;51.378;-1.342;2022-12-18T09:42:24;100263.79;;;2.64;26.80
63339;BME280;47485;51.378;-1.342;2022-12-18T09:44:53;100259.99;;;2.45;26.62
63339;BME280;47485;51.378;-1.342;2022-12-18T09:47:23;100251.55;;;1.05;27.65
63339;BME280;47485;51.378;-1.342;2022-12-18T09:49:56;100247.88;;;1.75;27.21
63339;BME280;47485;51.378;-1.342;2022-12-18T09:52:29;100243.20;;;0.37;27.90
63339;BME280;47485;51.378;-1.342;2022-12-18T09:55:01;100236.69;;;0.34;28.82
63339;BME280;47485;51.378;-1.342;2022-12-18T09:57:31;100241.50;;;1.92;28.91
63339;BME280;47485;51.378;-1.342;2022-12-18T10:00:06;100233.78;;;-2.04;31.29
63339;BME280;47485;51.378;-1.342;2022-12-18T10:02:35;100225.30;;;-0.11;29.90
63339;BME280;47485;51.378;-1.342;2022-12-18T10:05:05;100211.52;;;0.16;31.14
63339;BME280;47485;51.378;-1.342;2022-12-18T10:07:41;100203.52;;;-0.28;31.24
63339;BME280;47485;51.378;-1.342;2022-12-18T10:10:18;100216.14;;;-4.46;35.20
63339;BME280;47485;51.378;-1.342;2022-12-18T10:12:52;100205.47;;;-3.27;34.10
63339;BME280;47485;51.378;-1.342;2022-12-18T10:15:25;100215.73;;;-4.13;35.25
63339;BME280;47485;51.378;-1.342;2022-12-18T10:18:01;100212.55;;;-2.08;33.12
63339;BME280;47485;51.378;-1.342;2022-12-18T10:20:37;100213.77;;;-2.19;34.13
63339;BME280;47485;51.378;-1.342;2022-12-18T10:23:12;100208.75;;;-4.80;35.94
63339;BME280;47485;51.378;-1.342;2022-12-18T10:25:50;100198.42;;;-3.10;34.60
63339;BME280;47485;51.378;-1.342;2022-12-18T10:28:20;100206.05;;;-0.11;32.34
63339;BME280;47485;51.378;-1.342;2022-12-18T10:30:49;100212.88;;;-3.67;34.58
63339;BME280;47485;51.378;-1.342;2022-12-18T10:33:17;100221.84;;;-3.65;34.98
63339;BME280;47485;51.378;-1.342;2022-12-18T10:35:47;100219.72;;;-2.96;35.25
63339;BME280;47485;51.378;-1.342;2022-12-18T10:38:23;100213.52;;;-0.01;32.08
63339;BME280;47485;51.378;-1.342;2022-12-18T10:40:52;100203.66;;;-0.63;31.73
63339;BME280;47485;51.378;-1.342;2022-12-18T10:43:22;100185.20;;;-0.08;31.27
63339;BME280;47485;51.378;-1.342;2022-12-18T10:46:16;100179.04;;;-1.38;32.93
63339;BME280;47485;51.378;-1.342;2022-12-18T10:48:51;100176.47;;;-5.03;37.89
63339;BME280;47485;51.378;-1.342;2022-12-18T10:51:22;100169.05;;;-3.48;35.65
63339;BME280;47485;51.378;-1.342;2022-12-18T10:53:54;100166.43;;;-1.73;34.45
63339;BME280;47485;51.378;-1.342;2022-12-18T10:56:24;100173.24;;;0.05;32.96
63339;BME280;47485;51.378;-1.342;2022-12-18T10:58:57;100168.58;;;0.61;32.24
63339;BME280;47485;51.378;-1.342;2022-12-18T11:01:24;100160.38;;;-2.00;33.58
63339;BME280;47485;51.378;-1.342;2022-12-18T11:04:00;100156.35;;;-0.97;33.00
63339;BME280;47485;51.378;-1.342;2022-12-18T11:06:28;100148.37;;;0.39;31.48
63339;BME280;47485;51.378;-1.342;2022-12-18T11:08:59;100142.92;;;-0.50;33.31
63339;BME280;47485;51.378;-1.342;2022-12-18T11:11:28;100138.53;;;-1.31;33.41
63339;BME280;47485;51.378;-1.342;2022-12-18T11:14:00;100126.09;;;-3.08;34.66
63339;BME280;47485;51.378;-1.342;2022-12-18T11:16:29;100120.15;;;-0.92;33.16
63339;BME280;47485;51.378;-1.342;2022-12-18T11:19:17;100109.98;;;-2.30;34.04
63339;BME280;47485;51.378;-1.342;2022-12-18T11:21:46;100101.10;;;-2.71;34.14
63339;BME280;47485;51.378;-1.342;2022-12-18T11:24:20;100092.76;;;-0.56;32.71
63339;BME280;47485;51.378;-1.342;2022-12-18T11:26:50;100079.92;;;-3.25;34.47
63339;BME280;47485;51.378;-1.342;2022-12-18T11:29:23;100077.07;;;-1.92;33.75
63339;BME280;47485;51.378;-1.342;2022-12-18T11:31:51;100071.50;;;-2.33;34.98
63339;BME280;47485;51.378;-1.342;2022-12-18T11:34:24;100070.86;;;-1.00;34.00
63339;BME280;47485;51.378;-1.342;2022-12-18T11:36:54;100071.99;;;-1.84;34.03
63339;BME280;47485;51.378;-1.342;2022-12-18T11:39:31;100062.16;;;-1.19;33.03
63339;BME280;47485;51.378;-1.342;2022-12-18T11:42:04;100055.60;;;-2.90;35.50
63339;BME280;47485;51.378;-1.342;2022-12-18T11:44:37;100040.51;;;-1.27;33.82
63339;BME280;47485;51.378;-1.342;2022-12-18T11:47:11;100034.38;;;-4.65;37.99
63339;BME280;47485;51.378;-1.342;2022-12-18T11:49:40;100029.88;;;-3.25;37.91
63339;BME280;47485;51.378;-1.342;2022-12-18T11:52:13;100024.72;;;-3.55;39.31
63339;BME280;47485;51.378;-1.342;2022-12-18T11:54:42;100017.45;;;-3.99;39.12
63339;BME280;47485;51.378;-1.342;2022-12-18T11:57:16;100016.34;;;-5.08;40.31
63339;BME280;47485;51.378;-1.342;2022-12-18T11:59:52;100011.01;;;-7.07;43.99
63339;BME280;47485;51.378;-1.342;2022-12-18T12:02:33;100006.18;;;-5.45;41.15
63339;BME280;47485;51.378;-1.342;2022-12-18T12:05:19;100001.15;;;-5.52;41.12
63339;BME280;47485;51.378;-1.342;2022-12-18T12:07:55;99978.76;;;-3.24;39.52
63339;BME280;47485;51.378;-1.342;2022-12-18T12:10:32;99981.81;;;-4.14;38.56
63339;BME280;47485;51.378;-1.342;2022-12-18T12:13:18;99976.88;;;-3.03;37.88
63339;BME280;47485;51.378;-1.342;2022-12-18T12:15:58;99973.39;;;-3.53;38.96
63339;BME280;47485;51.378;-1.342;2022-12-18T12:18:35;99966.65;;;-3.85;40.14
63339;BME280;47485;51.378;-1.342;2022-12-18T12:21:13;99960.11;;;-2.72;38.39
63339;BME280;47485;51.378;-1.342;2022-12-18T12:23:49;99959.30;;;-4.22;41.18
63339;BME280;47485;51.378;-1.342;2022-12-18T12:26:26;99949.10;;;-3.24;40.31
63339;BME280;47485;51.378;-1.342;2022-12-18T12:29:04;99944.59;;;-3.61;41.04
63339;BME280;47485;51.378;-1.342;2022-12-18T12:31:50;99940.79;;;-4.16;42.12
63339;BME280;47485;51.378;-1.342;2022-12-18T12:34:25;99926.62;;;-5.87;42.97
63339;BME280;47485;51.378;-1.342;2022-12-18T12:37:03;99921.86;;;-4.58;42.42
63339;BME280;47485;51.378;-1.342;2022-12-18T12:39:37;99916.04;;;-3.81;41.78
63339;BME280;47485;51.378;-1.342;2022-12-18T12:42:05;99907.34;;;-3.68;40.18
63339;BME280;47485;51.378;-1.342;2022-12-18T12:44:35;99905.55;;;-4.00;41.34
63339;BME280;47485;51.378;-1.342;2022-12-18T12:47:11;99895.81;;;-4.75;42.61
63339;BME280;47485;51.378;-1.342;2022-12-18T12:49:40;99886.59;;;-3.71;42.54
63339;BME280;47485;51.378;-1.342;2022-12-18T12:52:14;99881.17;;;-5.08;43.79
63339;BME280;47485;51.378;-1.342;2022-12-18T12:54:42;99883.55;;;-4.23;43.62